Collins, Indiana
Current Conditions -  °F | °C
As of 2:54 AM on Sunday 26 Oct 2014 (Local Time) from KFWA Reporting Station
Clear Clear  
Wind Chill: 41°   Ceiling: Unl
Heat Index: 45°   Visibility: 10mi
Dew Point: 34°   Wind: 8mph
Humidity: 65%   Direction: 280°W
Pressure: 29.95"   Gusts: NA
Location:  41.1479°N, 85.4772°W
Report Text: KFWA 260654Z 28007KT 10SM CLR 07/01 A2995 RMK AO2 SLP140 T00720011
Loading
Personal Weather Stations






























Interactive Weather Map
Tropical Storm Tracking
New forecast layout! Learn more

10-Day Weather Forecast

Advertisements
Track Severe Weather on mobile